createdAt,value
2022-10-28T00:01:06.028Z,16.40
2022-10-28T00:03:33.516Z,16.40
2022-10-28T00:06:09.656Z,16.30
2022-10-28T00:08:36.726Z,16.30
2022-10-28T00:11:08.624Z,16.30
2022-10-28T00:13:36.300Z,16.20
2022-10-28T00:16:09.138Z,16.20
2022-10-28T00:18:36.357Z,16.20
2022-10-28T00:21:06.036Z,16.10
2022-10-28T00:23:34.923Z,16.10
2022-10-28T00:26:20.990Z,16.00
2022-10-28T00:28:53.160Z,16.00
2022-10-28T00:31:21.414Z,15.90
2022-10-28T00:33:51.315Z,15.90
2022-10-28T00:36:23.942Z,15.90
2022-10-28T00:38:52.580Z,15.80
2022-10-28T00:41:39.537Z,15.80
2022-10-28T00:44:44.039Z,15.70
2022-10-28T00:47:21.577Z,15.70
2022-10-28T00:49:53.047Z,15.60
2022-10-28T00:52:26.710Z,15.60
2022-10-28T00:54:56.742Z,15.60
2022-10-28T00:57:28.728Z,15.60
2022-10-28T00:59:55.892Z,15.50
2022-10-28T01:02:25.169Z,15.50
2022-10-28T01:04:54.711Z,15.50
2022-10-28T01:07:22.253Z,15.50
2022-10-28T01:09:49.000Z,15.40
2022-10-28T01:12:30.177Z,15.40
2022-10-28T01:15:02.910Z,15.50
2022-10-28T01:17:48.390Z,15.40
2022-10-28T01:20:41.553Z,15.40
2022-10-28T01:23:50.714Z,15.30
2022-10-28T01:27:08.246Z,15.40
2022-10-28T01:30:07.935Z,15.30
2022-10-28T01:32:43.688Z,15.30
2022-10-28T01:35:17.351Z,15.30
2022-10-28T01:37:48.889Z,15.20
2022-10-28T01:40:27.052Z,15.20
2022-10-28T01:43:07.883Z,15.20
2022-10-28T01:45:41.151Z,15.20
2022-10-28T01:48:19.524Z,15.10
2022-10-28T01:51:50.979Z,15.20
2022-10-28T01:54:23.965Z,15.10
2022-10-28T01:56:52.715Z,15.10
2022-10-28T01:59:28.972Z,15.10
2022-10-28T02:01:58.913Z,15.10
2022-10-28T02:04:27.970Z,15.00
2022-10-28T02:07:00.438Z,15.00
2022-10-28T02:09:55.996Z,15.00
2022-10-28T02:12:28.470Z,15.00
2022-10-28T02:17:57.028Z,14.90
2022-10-28T02:20:32.485Z,15.00
2022-10-28T02:23:07.906Z,14.90
2022-10-28T02:26:02.408Z,14.90
2022-10-28T02:28:36.914Z,14.90
2022-10-28T02:31:18.398Z,14.90
2022-10-28T02:33:52.344Z,14.90
2022-10-28T02:36:22.043Z,14.90
2022-10-28T02:38:58.537Z,14.90
2022-10-28T02:41:46.179Z,14.90
2022-10-28T02:44:18.682Z,14.80
2022-10-28T02:46:50.835Z,14.90
2022-10-28T02:49:20.347Z,14.80
2022-10-28T02:51:57.387Z,14.80
2022-10-28T02:54:37.799Z,14.80
2022-10-28T02:57:10.409Z,14.80
2022-10-28T02:59:37.105Z,14.80
2022-10-28T03:02:07.445Z,14.70
2022-10-28T03:04:36.449Z,14.80
2022-10-28T03:07:03.329Z,14.80
2022-10-28T03:09:30.054Z,14.70
2022-10-28T03:11:57.000Z,14.70
2022-10-28T03:14:23.761Z,14.70
2022-10-28T03:16:50.811Z,14.70
2022-10-28T03:19:19.706Z,14.70
2022-10-28T03:21:46.441Z,14.70
2022-10-28T03:24:13.185Z,14.70
2022-10-28T03:26:41.257Z,14.70
2022-10-28T03:29:08.121Z,14.70
2022-10-28T03:31:35.142Z,14.70
2022-10-28T03:34:01.889Z,14.70
2022-10-28T03:36:28.671Z,14.70
2022-10-28T03:38:55.363Z,14.80
2022-10-28T03:41:22.050Z,14.70
2022-10-28T03:43:51.013Z,14.70
2022-10-28T03:46:19.032Z,14.70
2022-10-28T03:48:45.737Z,14.70
2022-10-28T03:51:14.736Z,14.70
2022-10-28T03:53:41.450Z,14.70
2022-10-28T03:56:09.518Z,14.70
2022-10-28T03:58:41.436Z,14.70
2022-10-28T04:01:08.647Z,14.70
2022-10-28T04:03:35.419Z,14.70
2022-10-28T04:06:02.280Z,14.80
2022-10-28T04:08:31.527Z,14.80
2022-10-28T04:10:58.312Z,14.80
2022-10-28T04:13:25.092Z,14.80
2022-10-28T04:15:53.983Z,14.90
2022-10-28T04:18:20.667Z,14.90
2022-10-28T04:20:47.376Z,14.90
2022-10-28T04:23:19.230Z,15.00
2022-10-28T04:25:54.770Z,15.00
2022-10-28T04:28:24.784Z,15.00
2022-10-28T04:30:51.524Z,15.00
2022-10-28T04:33:20.651Z,15.00
2022-10-28T04:35:47.445Z,15.00
2022-10-28T04:38:15.332Z,15.00
2022-10-28T04:40:45.386Z,15.00
2022-10-28T04:43:14.375Z,15.00
2022-10-28T04:45:41.067Z,15.10
2022-10-28T04:48:10.627Z,15.10
2022-10-28T04:50:37.338Z,15.10
2022-10-28T04:53:04.353Z,15.10
2022-10-28T04:55:33.603Z,15.10
2022-10-28T04:58:01.263Z,15.10
2022-10-28T05:00:31.613Z,15.10
2022-10-28T05:03:03.859Z,15.10
2022-10-28T05:05:33.425Z,15.10
2022-10-28T05:08:02.482Z,15.10
2022-10-28T05:10:31.441Z,15.20
2022-10-28T05:12:58.350Z,15.20
2022-10-28T05:15:26.577Z,15.20
2022-10-28T05:17:54.028Z,15.20
2022-10-28T05:20:21.276Z,15.20
2022-10-28T05:22:53.732Z,15.20
2022-10-28T05:25:23.667Z,15.20
2022-10-28T05:27:50.894Z,15.20
2022-10-28T05:30:18.145Z,15.20
2022-10-28T05:32:45.386Z,15.20
2022-10-28T05:35:14.362Z,15.20
2022-10-28T05:37:41.221Z,15.20
2022-10-28T05:40:08.699Z,15.20
2022-10-28T05:42:41.150Z,15.20
2022-10-28T05:45:08.654Z,15.30
2022-10-28T05:47:37.815Z,15.30
2022-10-28T05:50:09.569Z,15.30
2022-10-28T05:52:36.275Z,15.20
2022-10-28T05:55:05.139Z,15.30
2022-10-28T05:57:35.698Z,15.30
2022-10-28T06:00:03.691Z,15.20
2022-10-28T06:02:32.602Z,15.30
2022-10-28T06:04:59.326Z,15.30
2022-10-28T06:07:28.341Z,15.20
2022-10-28T06:09:59.747Z,15.30
2022-10-28T06:12:27.292Z,15.20
2022-10-28T06:14:54.065Z,15.20
2022-10-28T06:17:24.019Z,15.30
2022-10-28T06:19:50.972Z,15.30
2022-10-28T06:22:22.355Z,15.30
2022-10-28T06:24:49.058Z,15.20
2022-10-28T06:27:15.894Z,15.20
2022-10-28T06:29:42.639Z,15.30
2022-10-28T06:32:09.573Z,15.30
2022-10-28T06:34:37.753Z,15.30
2022-10-28T06:37:09.075Z,15.20
2022-10-28T06:39:38.244Z,15.30
2022-10-28T06:42:05.241Z,15.30
2022-10-28T06:44:31.914Z,15.30
2022-10-28T06:47:00.317Z,15.30
2022-10-28T06:49:30.846Z,15.40
2022-10-28T06:51:57.489Z,15.40
2022-10-28T06:54:24.247Z,15.40
2022-10-28T06:56:53.257Z,15.40
2022-10-28T06:59:20.018Z,15.40
2022-10-28T07:01:46.816Z,15.40
2022-10-28T07:04:14.007Z,15.40
2022-10-28T07:06:41.248Z,15.50
2022-10-28T07:09:09.439Z,15.50
2022-10-28T07:11:36.152Z,15.50
2022-10-28T07:14:02.908Z,15.60
2022-10-28T07:16:32.113Z,15.60
2022-10-28T07:18:58.839Z,15.60
2022-10-28T07:21:29.385Z,15.70
2022-10-28T07:23:56.815Z,15.70
2022-10-28T07:26:26.136Z,15.70
2022-10-28T07:28:53.279Z,15.80
2022-10-28T07:31:23.280Z,15.80
2022-10-28T07:33:53.971Z,15.80
2022-10-28T07:36:21.297Z,15.90
2022-10-28T07:38:52.422Z,15.90
2022-10-28T07:41:20.756Z,15.90
2022-10-28T07:43:52.010Z,16.00
2022-10-28T07:46:19.192Z,16.00
2022-10-28T07:48:46.151Z,16.00
2022-10-28T07:51:15.124Z,16.10
2022-10-28T07:53:42.489Z,16.10
2022-10-28T07:56:14.548Z,16.20
2022-10-28T07:58:43.141Z,16.20
2022-10-28T08:01:11.657Z,16.20
2022-10-28T08:03:39.354Z,16.30
2022-10-28T08:06:22.011Z,16.30
2022-10-28T08:08:52.939Z,16.40
2022-10-28T08:11:23.800Z,16.40
2022-10-28T08:13:51.982Z,16.50
2022-10-28T08:16:19.382Z,16.50
2022-10-28T08:18:46.426Z,16.60
2022-10-28T08:21:14.423Z,16.60
2022-10-28T08:23:46.494Z,16.70
2022-10-28T08:26:14.665Z,16.70
2022-10-28T08:28:44.024Z,16.80
2022-10-28T08:31:12.350Z,16.90
2022-10-28T08:33:45.232Z,16.90
2022-10-28T08:36:15.440Z,17.00
2022-10-28T08:38:46.703Z,17.00
2022-10-28T08:41:31.323Z,17.00
2022-10-28T08:44:13.520Z,17.10
2022-10-28T08:47:15.782Z,17.10
2022-10-28T08:49:47.067Z,17.10
2022-10-28T08:53:00.333Z,17.20
2022-10-28T08:55:43.425Z,17.20
2022-10-28T08:58:25.263Z,17.20
2022-10-28T09:00:54.947Z,17.20
2022-10-28T09:03:25.862Z,17.30
2022-10-28T09:06:20.304Z,17.30
2022-10-28T09:08:53.322Z,17.40
2022-10-28T09:11:45.687Z,17.50
2022-10-28T09:14:25.683Z,17.60
2022-10-28T09:17:22.838Z,17.70
2022-10-28T09:19:56.090Z,17.80
2022-10-28T09:22:48.961Z,17.90
2022-10-28T09:25:25.938Z,18.00
2022-10-28T09:28:37.839Z,18.00
2022-10-28T09:31:38.297Z,18.20
2022-10-28T09:34:18.213Z,18.30
2022-10-28T09:37:24.311Z,18.40
2022-10-28T09:39:55.931Z,18.60
2022-10-28T09:42:28.685Z,18.70
2022-10-28T09:45:06.135Z,18.70
2022-10-28T09:47:45.940Z,18.80
2022-10-28T09:50:28.279Z,18.90
2022-10-28T09:53:22.636Z,19.00
2022-10-28T09:55:50.890Z,19.10
2022-10-28T09:58:18.711Z,19.20
2022-10-28T10:00:47.814Z,19.30
2022-10-28T10:03:16.288Z,19.40
2022-10-28T10:05:47.728Z,19.50
2022-10-28T10:08:15.854Z,19.60
2022-10-28T10:10:47.772Z,19.70
2022-10-28T10:13:18.011Z,19.70
2022-10-28T10:15:53.857Z,19.80
2022-10-28T10:18:25.939Z,19.80
2022-10-28T10:21:00.567Z,19.90
2022-10-28T10:23:37.393Z,20.00
2022-10-28T10:26:12.299Z,20.00
2022-10-28T10:28:48.819Z,20.10
2022-10-28T10:31:29.806Z,20.10
2022-10-28T10:33:57.912Z,20.20
2022-10-28T10:36:31.353Z,20.20
2022-10-28T10:39:02.274Z,20.20
2022-10-28T10:41:40.548Z,20.30
2022-10-28T10:44:22.379Z,20.30
2022-10-28T10:47:05.970Z,20.30
2022-10-28T10:49:34.753Z,20.40
2022-10-28T10:52:18.252Z,20.40
2022-10-28T10:55:21.000Z,20.40
2022-10-28T10:57:51.014Z,20.40
2022-10-28T11:00:20.965Z,20.50
2022-10-28T11:02:50.011Z,20.50
2022-10-28T11:05:25.754Z,20.50
2022-10-28T11:07:58.356Z,20.50
2022-10-28T11:10:30.902Z,20.50
2022-10-28T11:13:01.200Z,20.50
2022-10-28T11:15:30.013Z,20.60
2022-10-28T11:18:11.845Z,20.60
2022-10-28T11:20:59.474Z,20.60
2022-10-28T11:23:54.840Z,20.60
2022-10-28T11:26:24.013Z,20.60
2022-10-28T11:29:03.557Z,20.60
2022-10-28T11:31:48.136Z,20.60
2022-10-28T11:34:17.647Z,20.60
2022-10-28T11:37:09.727Z,20.60
2022-10-28T11:40:07.784Z,20.60
2022-10-28T11:43:13.639Z,20.70
2022-10-28T11:45:40.304Z,20.70
2022-10-28T11:48:09.778Z,20.70
2022-10-28T11:50:58.867Z,20.80
2022-10-28T11:53:44.068Z,20.80
2022-10-28T11:56:33.869Z,20.80
2022-10-28T11:59:02.934Z,20.80
2022-10-28T12:02:13.887Z,20.80
2022-10-28T12:05:15.408Z,20.80
2022-10-28T12:08:21.184Z,20.80
2022-10-28T12:11:31.074Z,20.80
2022-10-28T12:14:24.426Z,20.90
2022-10-28T12:17:04.446Z,20.80
2022-10-28T12:19:43.005Z,20.90
2022-10-28T12:22:43.400Z,20.90
2022-10-28T12:25:23.468Z,21.00
2022-10-28T12:27:54.029Z,21.00
2022-10-28T12:30:42.112Z,21.00
2022-10-28T12:33:24.324Z,21.00
2022-10-28T12:36:09.062Z,21.00
2022-10-28T12:39:00.018Z,21.00
2022-10-28T12:41:33.507Z,21.10
2022-10-28T12:44:08.800Z,21.10
2022-10-28T12:46:54.711Z,21.10
2022-10-28T12:49:52.162Z,21.10
2022-10-28T12:52:30.573Z,21.10
2022-10-28T12:55:11.909Z,21.00
2022-10-28T12:57:39.634Z,21.00
2022-10-28T13:00:20.277Z,21.00
2022-10-28T13:03:03.428Z,21.00
2022-10-28T13:06:02.217Z,21.00
2022-10-28T13:08:43.620Z,21.00
2022-10-28T13:11:19.083Z,21.00
2022-10-28T13:14:05.073Z,21.00
2022-10-28T13:17:07.213Z,21.00
2022-10-28T13:20:02.575Z,21.10
2022-10-28T13:22:59.376Z,21.10
2022-10-28T13:25:34.228Z,21.20
2022-10-28T13:28:02.098Z,21.20
2022-10-28T13:30:32.195Z,21.20
2022-10-28T13:33:19.687Z,21.30
2022-10-28T13:35:47.221Z,21.20
2022-10-28T13:38:24.222Z,21.30
2022-10-28T13:40:59.758Z,21.20
2022-10-28T13:44:05.683Z,21.30
2022-10-28T13:46:59.993Z,21.30
2022-10-28T13:49:34.012Z,21.30
2022-10-28T13:52:06.534Z,21.30
2022-10-28T13:54:45.125Z,21.20
2022-10-28T13:57:34.845Z,21.10
2022-10-28T14:00:04.599Z,21.10
2022-10-28T14:02:46.507Z,21.00
2022-10-28T14:05:15.664Z,20.90
2022-10-28T14:07:57.579Z,20.90
2022-10-28T14:10:28.748Z,20.80
2022-10-28T14:13:06.039Z,20.70
2022-10-28T14:15:38.600Z,20.70
2022-10-28T14:18:37.403Z,20.60
2022-10-28T14:21:01.840Z,20.60
2022-10-28T14:23:30.943Z,20.60
2022-10-28T14:26:04.537Z,20.50
2022-10-28T14:28:33.489Z,20.50
2022-10-28T14:31:12.233Z,20.40
2022-10-28T14:34:05.063Z,20.50
2022-10-28T14:37:01.077Z,20.40
2022-10-28T14:39:46.960Z,20.40
2022-10-28T14:42:34.176Z,20.30
2022-10-28T14:45:36.426Z,20.30
2022-10-28T14:48:21.738Z,20.30
2022-10-28T14:50:51.754Z,20.20
2022-10-28T14:53:22.334Z,20.20
2022-10-28T14:55:58.686Z,20.20
2022-10-28T14:58:30.598Z,20.20
2022-10-28T15:01:15.268Z,20.10
2022-10-28T15:03:47.307Z,20.10
2022-10-28T15:06:34.791Z,20.10
2022-10-28T15:09:22.851Z,20.10
2022-10-28T15:11:59.118Z,20.10
2022-10-28T15:14:55.851Z,20.10
2022-10-28T15:17:36.953Z,20.00
2022-10-28T15:20:15.520Z,20.00
2022-10-28T15:22:44.429Z,19.90
2022-10-28T15:25:16.603Z,20.00
2022-10-28T15:27:46.899Z,19.90
2022-10-28T15:30:23.550Z,19.90
2022-10-28T15:32:51.684Z,19.80
2022-10-28T15:35:30.582Z,19.80
2022-10-28T15:38:21.566Z,19.70
2022-10-28T15:40:49.103Z,19.70
2022-10-28T15:43:30.613Z,19.60
2022-10-28T15:46:10.841Z,19.60
2022-10-28T15:48:41.098Z,19.50
2022-10-28T15:51:16.255Z,19.40
2022-10-28T15:53:44.797Z,19.30
2022-10-28T15:56:16.724Z,19.30
2022-10-28T15:58:59.509Z,19.20
2022-10-28T16:01:33.083Z,19.20
2022-10-28T16:04:00.538Z,19.10
2022-10-28T16:06:33.669Z,19.10
2022-10-28T16:09:22.305Z,19.10
2022-10-28T16:12:17.022Z,19.00
2022-10-28T16:14:53.855Z,19.00
2022-10-28T16:17:23.755Z,19.00
2022-10-28T16:20:02.211Z,18.90
2022-10-28T16:22:31.098Z,18.90
2022-10-28T16:24:57.897Z,18.90
2022-10-28T16:27:27.545Z,18.80
2022-10-28T16:29:59.023Z,18.80
2022-10-28T16:32:33.934Z,18.80
2022-10-28T16:35:02.521Z,18.70
2022-10-28T16:37:31.949Z,18.70
2022-10-28T16:40:01.012Z,18.70
2022-10-28T16:42:27.916Z,18.60
2022-10-28T16:44:56.809Z,18.60
2022-10-28T16:47:29.086Z,18.50
2022-10-28T16:49:57.631Z,18.50
2022-10-28T16:52:33.635Z,18.50
2022-10-28T16:55:02.687Z,18.40
2022-10-28T16:57:30.198Z,18.40
2022-10-28T16:59:59.505Z,18.30
2022-10-28T17:02:35.052Z,18.30
2022-10-28T17:05:05.128Z,18.30
2022-10-28T17:07:34.783Z,18.20
2022-10-28T17:10:02.351Z,18.20
2022-10-28T17:12:31.465Z,18.20
2022-10-28T17:15:05.928Z,18.10
2022-10-28T17:17:32.701Z,18.10
2022-10-28T17:19:59.534Z,18.10
2022-10-28T17:22:28.771Z,18.10
2022-10-28T17:25:00.524Z,18.00
2022-10-28T17:27:27.471Z,18.00
2022-10-28T17:29:59.509Z,18.00
2022-10-28T17:32:31.430Z,17.90
2022-10-28T17:34:58.230Z,17.90
2022-10-28T17:37:32.784Z,17.90
2022-10-28T17:40:02.484Z,17.80
2022-10-28T17:42:31.608Z,17.80
2022-10-28T17:44:58.332Z,17.80
2022-10-28T17:47:28.174Z,17.80
2022-10-28T17:49:57.368Z,17.70
2022-10-28T17:52:38.479Z,17.70
2022-10-28T17:55:08.468Z,17.70
2022-10-28T17:57:35.334Z,17.60
2022-10-28T18:00:04.784Z,17.60
2022-10-28T18:02:31.627Z,17.60
2022-10-28T18:04:58.474Z,17.60
2022-10-28T18:07:26.702Z,17.50
2022-10-28T18:09:53.472Z,17.50
2022-10-28T18:12:20.363Z,17.40
2022-10-28T18:14:49.610Z,17.40
2022-10-28T18:17:19.390Z,17.40
2022-10-28T18:19:48.621Z,17.40
2022-10-28T18:22:17.860Z,17.40
2022-10-28T18:24:44.653Z,17.30
2022-10-28T18:27:14.391Z,17.30
2022-10-28T18:29:41.095Z,17.30
2022-10-28T18:32:07.933Z,17.30
2022-10-28T18:34:37.195Z,17.20
2022-10-28T18:37:08.714Z,17.20
2022-10-28T18:39:35.487Z,17.20
2022-10-28T18:42:02.494Z,17.20
2022-10-28T18:44:31.893Z,17.20
2022-10-28T18:46:59.148Z,17.20
2022-10-28T18:49:25.881Z,17.20
2022-10-28T18:51:59.675Z,17.10
2022-10-28T18:54:26.404Z,17.10
2022-10-28T18:56:58.506Z,17.10
2022-10-28T18:59:28.296Z,17.10
2022-10-28T19:02:00.778Z,17.10
2022-10-28T19:04:30.405Z,17.10
2022-10-28T19:06:59.646Z,17.00
2022-10-28T19:09:26.415Z,17.00
2022-10-28T19:11:55.406Z,17.00
2022-10-28T19:14:24.345Z,17.00
2022-10-28T19:16:53.403Z,17.00
2022-10-28T19:19:22.388Z,16.90
2022-10-28T19:21:51.901Z,16.90
2022-10-28T19:24:21.968Z,16.80
2022-10-28T19:26:50.915Z,16.80
2022-10-28T19:29:19.895Z,16.80
2022-10-28T19:31:46.984Z,16.80
2022-10-28T19:34:16.184Z,16.70
2022-10-28T19:36:43.180Z,16.70
2022-10-28T19:39:09.992Z,16.70
2022-10-28T19:41:36.732Z,16.70
2022-10-28T19:44:04.222Z,16.70
2022-10-28T19:46:33.909Z,16.60
2022-10-28T19:49:05.145Z,16.70
2022-10-28T19:51:40.725Z,16.60
2022-10-28T19:54:14.448Z,16.50
2022-10-28T19:56:44.294Z,16.50
2022-10-28T19:59:13.251Z,16.50
2022-10-28T20:01:41.019Z,16.50
2022-10-28T20:04:11.780Z,16.40
2022-10-28T20:06:40.184Z,16.40
2022-10-28T20:09:09.700Z,16.40
2022-10-28T20:11:40.658Z,16.30
2022-10-28T20:14:12.674Z,16.30
2022-10-28T20:16:42.693Z,16.30
2022-10-28T20:19:12.687Z,16.20
2022-10-28T20:21:40.219Z,16.20
2022-10-28T20:24:07.840Z,16.20
2022-10-28T20:26:36.685Z,16.20
2022-10-28T20:29:03.935Z,16.10
2022-10-28T20:31:31.785Z,16.10
2022-10-28T20:34:03.683Z,16.10
2022-10-28T20:36:44.314Z,16.10
2022-10-28T20:39:12.540Z,16.00
2022-10-28T20:41:40.368Z,16.00
2022-10-28T20:44:07.669Z,16.00
2022-10-28T20:46:35.253Z,15.90
2022-10-28T20:49:02.863Z,15.90
2022-10-28T20:51:31.712Z,15.90
2022-10-28T20:53:59.005Z,15.90
2022-10-28T20:56:28.044Z,15.90
2022-10-28T20:58:55.876Z,15.90
2022-10-28T21:01:30.213Z,15.90
2022-10-28T21:04:00.771Z,15.80
2022-10-28T21:06:28.433Z,15.80
2022-10-28T21:08:56.589Z,15.80
2022-10-28T21:11:24.447Z,15.80
2022-10-28T21:13:58.794Z,15.80
2022-10-28T21:16:27.229Z,15.70
2022-10-28T21:18:54.477Z,15.70
2022-10-28T21:21:22.909Z,15.70
2022-10-28T21:23:49.697Z,15.70
2022-10-28T21:26:16.694Z,15.70
2022-10-28T21:28:43.478Z,15.70
2022-10-28T21:31:16.152Z,15.60
2022-10-28T21:36:21.138Z,15.60
2022-10-28T21:38:48.090Z,15.60
2022-10-28T21:41:17.487Z,15.60
2022-10-28T21:43:47.803Z,15.60
2022-10-28T21:46:15.712Z,15.60
2022-10-28T21:48:45.078Z,15.60
2022-10-28T21:51:15.792Z,15.60
2022-10-28T21:53:43.824Z,15.60
2022-10-28T21:56:16.634Z,15.50
2022-10-28T21:58:47.362Z,15.50
2022-10-28T22:01:16.804Z,15.50
2022-10-28T22:03:43.623Z,15.50
2022-10-28T22:06:10.550Z,15.40
2022-10-28T22:08:37.256Z,15.30
2022-10-28T22:11:06.790Z,15.30
2022-10-28T22:13:34.318Z,15.20
2022-10-28T22:16:03.303Z,15.20
2022-10-28T22:18:30.829Z,15.10
2022-10-28T22:21:02.963Z,15.00
2022-10-28T22:23:29.679Z,15.00
2022-10-28T22:26:10.661Z,15.00
2022-10-28T22:28:40.254Z,14.90
2022-10-28T22:31:12.874Z,14.90
2022-10-28T22:33:40.127Z,14.90
2022-10-28T22:36:09.628Z,15.00
2022-10-28T22:38:39.182Z,15.00
2022-10-28T22:41:08.574Z,15.00
2022-10-28T22:43:35.363Z,15.10
2022-10-28T22:46:02.727Z,15.10
2022-10-28T22:48:32.451Z,15.10
2022-10-28T22:50:59.997Z,15.10
2022-10-28T22:53:27.037Z,15.20
2022-10-28T22:55:54.444Z,15.10
2022-10-28T22:58:22.241Z,15.20
2022-10-28T23:00:49.791Z,15.20
2022-10-28T23:03:16.940Z,15.20
2022-10-28T23:05:43.665Z,15.10
2022-10-28T23:08:16.793Z,15.10
2022-10-28T23:10:45.692Z,15.10
2022-10-28T23:13:13.668Z,15.10
2022-10-28T23:15:40.506Z,15.00
2022-10-28T23:18:07.321Z,15.00
2022-10-28T23:20:38.178Z,14.90
2022-10-28T23:23:07.111Z,14.90
2022-10-28T23:25:35.995Z,14.90
2022-10-28T23:28:07.557Z,14.90
2022-10-28T23:30:34.264Z,14.80
2022-10-28T23:33:00.993Z,14.90
2022-10-28T23:35:30.136Z,14.80
2022-10-28T23:37:59.174Z,14.80
2022-10-28T23:40:26.180Z,14.80
2022-10-28T23:42:55.411Z,14.80
2022-10-28T23:45:22.397Z,14.70
2022-10-28T23:47:49.328Z,14.70
2022-10-28T23:50:18.285Z,14.70
2022-10-28T23:52:44.966Z,14.70
2022-10-28T23:55:11.608Z,14.70
2022-10-28T23:57:40.731Z,14.60
